Time;durP1;ratioP1;P1;durP2;ratioP2;P2;SDS_P1;SDS_P2;PMS_P1;PMS_P2;Temp;Humidity;BMP_temperature;BMP_pressure;BME280_temperature;BME280_humidity;BME280_pressure;Samples;Min_cycle;Max_cycle;Signal;HPM_P1;HPM_P2
2022/11/16 00:01:03;;;;;;;1999.90;999.90;;;14.30;99.90;;;;;;5073764;28;20035;-82
2022/11/16 00:03:30;;;;;;;1999.90;999.90;;;14.40;99.90;;;;;;5075184;28;20086;-73
2022/11/16 00:05:58;;;;;;;1999.90;999.90;;;14.40;99.90;;;;;;5075259;28;20543;-74
2022/11/16 00:08:24;;;;;;;1999.90;999.90;;;14.40;99.90;;;;;;5074961;28;20100;-81
2022/11/16 00:10:49;;;;;;;1999.90;999.90;;;14.40;99.90;;;;;;5075206;28;20028;-81
2022/11/16 00:13:15;;;;;;;1999.90;999.90;;;14.40;99.90;;;;;;5074777;28;20031;-79
2022/11/16 00:15:41;;;;;;;1999.90;999.90;;;14.40;99.90;;;;;;5075343;28;20512;-73
2022/11/16 00:18:06;;;;;;;1999.90;999.90;;;14.40;99.90;;;;;;5074188;28;20112;-74
2022/11/16 00:20:32;;;;;;;1999.90;999.90;;;14.50;99.90;;;;;;5074496;28;20032;-80
2022/11/16 00:22:57;;;;;;;1999.90;999.90;;;14.50;99.90;;;;;;5074476;28;20051;-79
2022/11/16 00:25:23;;;;;;;1999.90;999.90;;;14.50;99.90;;;;;;5063658;28;20025;-81
2022/11/16 00:27:49;;;;;;;1999.90;999.90;;;14.50;99.90;;;;;;5055115;28;20021;-73
2022/11/16 00:30:15;;;;;;;1999.90;999.90;;;14.50;99.90;;;;;;5053481;28;20387;-74
2022/11/16 00:32:40;;;;;;;1999.90;999.90;;;14.50;99.90;;;;;;5054571;28;20032;-80
2022/11/16 00:35:06;;;;;;;1999.90;999.90;;;14.50;99.90;;;;;;5054583;28;20033;-80
2022/11/16 00:37:32;;;;;;;1999.90;999.90;;;14.40;99.90;;;;;;5054809;28;20024;-81
2022/11/16 00:39:58;;;;;;;1999.90;999.90;;;14.40;99.90;;;;;;5054235;28;20033;-79
2022/11/16 00:42:23;;;;;;;1999.90;999.90;;;14.30;99.90;;;;;;5054472;28;20074;-73
2022/11/16 00:44:49;;;;;;;1999.90;999.90;;;14.30;99.90;;;;;;5076705;28;20027;-73
2022/11/16 00:47:15;;;;;;;1999.90;999.90;;;14.30;99.90;;;;;;5094778;28;20030;-82
2022/11/16 00:49:40;;;;;;;1999.90;999.90;;;14.30;99.90;;;;;;5094871;28;20483;-82
2022/11/16 00:52:06;;;;;;;1999.90;999.90;;;14.30;99.90;;;;;;5093238;28;20488;-81
2022/11/16 00:54:31;;;;;;;1999.90;999.90;;;14.30;99.90;;;;;;5094412;28;20081;-74
2022/11/16 00:56:57;;;;;;;1999.90;999.90;;;14.40;99.90;;;;;;5092891;28;20024;-74
2022/11/16 00:59:22;;;;;;;1999.90;999.90;;;14.40;99.90;;;;;;5094432;28;20026;-80
2022/11/16 01:01:48;;;;;;;1999.90;999.90;;;14.40;99.90;;;;;;5082507;28;20047;-81
2022/11/16 01:04:14;;;;;;;1999.90;999.90;;;14.40;99.90;;;;;;5073983;28;20035;-74
2022/11/16 01:06:39;;;;;;;1999.90;999.90;;;14.50;99.90;;;;;;5074098;28;20027;-75
2022/11/16 01:09:05;;;;;;;1999.90;999.90;;;14.50;99.90;;;;;;5072666;28;20138;-73
2022/11/16 01:14:14;;;;;;;1999.90;999.90;;;14.40;99.90;;;;;;5073740;28;20093;-81
2022/11/16 01:16:40;;;;;;;1999.90;999.90;;;14.40;99.90;;;;;;5072638;28;20480;-81
2022/11/16 01:19:07;;;;;;;1999.90;999.90;;;14.50;99.90;;;;;;5073952;28;20034;-79
2022/11/16 01:21:33;;;;;;;1999.90;999.90;;;14.50;99.90;;;;;;5073696;28;20029;-76
2022/11/16 01:23:58;;;;;;;1999.90;999.90;;;14.50;99.90;;;;;;5073418;28;20025;-76
2022/11/16 01:26:24;;;;;;;1999.90;999.90;;;14.50;99.90;;;;;;5054241;28;20025;-82
2022/11/16 01:28:50;;;;;;;1999.90;999.90;;;14.50;99.90;;;;;;5053580;28;20511;-81
2022/11/16 01:31:16;;;;;;;1999.90;999.90;;;14.40;99.90;;;;;;5054088;28;20025;-80
2022/11/16 01:33:41;;;;;;;1999.90;999.90;;;14.40;99.90;;;;;;5053658;28;20162;-74
2022/11/16 01:36:13;;;;;;;1999.90;999.90;;;14.40;99.90;;;;;;5053540;28;20110;-78
2022/11/16 01:38:41;;;;;;;1999.90;999.90;;;14.40;99.90;;;;;;5053312;28;20027;-80
2022/11/16 01:41:07;;;;;;;1999.90;999.90;;;14.40;99.90;;;;;;5053535;28;20025;-80
2022/11/16 01:43:52;;;;;;;1999.90;999.90;;;14.40;99.90;;;;;;5054367;28;20040;-79
2022/11/16 01:46:18;;;;;;;1999.90;999.90;;;14.40;99.90;;;;;;5093441;28;20028;-74
2022/11/16 01:48:45;;;;;;;1999.90;999.90;;;14.30;99.90;;;;;;5093426;28;20113;-75
2022/11/16 01:51:11;;;;;;;1999.90;999.90;;;14.40;99.90;;;;;;5093799;28;20107;-81
2022/11/16 01:53:37;;;;;;;1999.90;999.90;;;14.40;99.90;;;;;;5091880;28;20577;-75
2022/11/16 01:56:03;;;;;;;1999.90;999.90;;;14.40;99.90;;;;;;5093445;28;20020;-79
2022/11/16 01:58:30;;;;;;;1999.90;999.90;;;14.30;99.90;;;;;;5093836;28;20051;-80
2022/11/16 02:00:55;;;;;;;1999.90;999.90;;;14.40;99.90;;;;;;5089387;28;20028;-73
2022/11/16 02:03:21;;;;;;;1999.90;999.90;;;14.40;99.90;;;;;;5058876;28;20056;-79
2022/11/16 02:05:58;;;;;;;1999.90;999.90;;;14.40;99.90;;;;;;5053175;28;20427;-81
2022/11/16 02:11:25;;;;;;;1999.90;999.90;;;14.20;99.90;;;;;;5053018;28;20159;-80
2022/11/16 02:14:05;;;;;;;1999.90;999.90;;;14.20;99.90;;;;;;5052720;28;20025;-74
2022/11/16 02:16:52;;;;;;;1999.90;999.90;;;14.20;99.90;;;;;;5057461;28;20499;-74
2022/11/16 02:19:52;;;;;;;1999.90;999.90;;;14.20;99.90;;;;;;5072838;28;20021;-82
2022/11/16 02:23:08;;;;;;;1999.90;999.90;;;14.30;99.90;;;;;;5072444;28;20032;-80
2022/11/16 02:26:18;;;;;;;1999.90;999.90;;;14.40;99.90;;;;;;4974874;28;20076;-73
2022/11/16 02:29:20;;;;;;;1999.90;999.90;;;14.40;99.90;;;;;;4976253;28;20121;-74
2022/11/16 02:32:24;;;;;;;1999.90;999.90;;;14.40;99.90;;;;;;5072710;28;20020;-79
2022/11/16 02:34:55;;;;;;;1999.90;999.90;;;14.40;99.90;;;;;;5027907;28;20039;-79
2022/11/16 02:37:24;;;;;;;1999.90;999.90;;;14.50;99.90;;;;;;5072615;28;20024;-82
2022/11/16 02:39:58;;;;;;;1999.90;999.90;;;14.50;99.90;;;;;;5072263;28;20032;-74
2022/11/16 02:42:42;;;;;;;1999.90;999.90;;;14.50;99.90;;;;;;5072161;28;20038;-74
2022/11/16 02:45:11;;;;;;;1999.90;999.90;;;14.50;99.90;;;;;;5086057;28;20104;-80
2022/11/16 02:47:38;;;;;;;1999.90;999.90;;;14.50;99.90;;;;;;5092794;28;20498;-74
2022/11/16 02:50:09;;;;;;;1999.90;999.90;;;14.50;99.90;;;;;;5092391;28;20023;-80
2022/11/16 02:52:36;;;;;;;1999.90;999.90;;;14.40;99.90;;;;;;5092132;28;20024;-74
2022/11/16 02:55:02;;;;;;;1999.90;999.90;;;14.30;99.90;;;;;;5092421;28;20111;-73
2022/11/16 02:57:42;;;;;;;1999.90;999.90;;;14.30;99.90;;;;;;5092540;28;20047;-79
2022/11/16 03:00:14;;;;;;;1999.90;999.90;;;14.30;99.90;;;;;;5092247;28;20024;-79
2022/11/16 03:02:48;;;;;;;1999.90;999.90;;;14.20;99.90;;;;;;5065340;28;20044;-81
2022/11/16 03:05:30;;;;;;;1999.90;999.90;;;14.10;99.90;;;;;;5050999;28;20036;-74
2022/11/16 03:08:24;;;;;;;1999.90;999.90;;;14.10;99.90;;;;;;5051843;28;20139;-74
2022/11/16 03:13:39;;;;;;;1999.90;999.90;;;14.00;99.90;;;;;;5051822;28;20052;-79
2022/11/16 03:16:18;;;;;;;1999.90;999.90;;;14.10;99.90;;;;;;5051955;28;20454;-78
2022/11/16 03:18:46;;;;;;;1999.90;999.90;;;14.10;99.90;;;;;;5052814;28;20492;-74
2022/11/16 03:21:26;;;;;;;1999.90;999.90;;;14.00;99.90;;;;;;5056145;28;20033;-80
2022/11/16 03:23:53;;;;;;;1999.90;999.90;;;14.10;99.90;;;;;;5055830;28;20033;-79
2022/11/16 03:26:23;;;;;;;1999.90;999.90;;;14.20;99.90;;;;;;5055613;28;20025;-80
2022/11/16 03:28:59;;;;;;;1999.90;999.90;;;14.20;99.90;;;;;;5055937;28;20021;-81
2022/11/16 03:31:40;;;;;;;1999.90;999.90;;;14.30;99.90;;;;;;5056056;28;20453;-77
2022/11/16 03:34:15;;;;;;;1999.90;999.90;;;14.30;99.90;;;;;;5055783;28;20025;-73
2022/11/16 03:36:43;;;;;;;1999.90;999.90;;;14.30;99.90;;;;;;5055894;28;20029;-74
2022/11/16 03:39:20;;;;;;;1999.90;999.90;;;14.30;99.90;;;;;;5061214;28;20023;-74
2022/11/16 03:41:47;;;;;;;1999.90;999.90;;;14.30;99.90;;;;;;5075874;28;20028;-80
2022/11/16 03:44:16;;;;;;;1999.90;999.90;;;14.30;99.90;;;;;;5081970;28;20024;-77
2022/11/16 03:46:43;;;;;;;1999.90;999.90;;;14.30;99.90;;;;;;5095147;28;20590;-75
2022/11/16 03:49:08;;;;;;;1999.90;999.90;;;14.30;99.90;;;;;;5095749;28;20016;-77
2022/11/16 03:51:34;;;;;;;1999.90;999.90;;;14.10;99.90;;;;;;5096519;28;20536;-81
2022/11/16 03:54:00;;;;;;;1999.90;999.90;;;13.90;99.90;;;;;;5095499;28;20020;-84
2022/11/16 03:56:26;;;;;;;1999.90;999.90;;;13.70;99.90;;;;;;5095625;28;20041;-73
2022/11/16 03:58:51;;;;;;;1999.90;999.90;;;13.50;99.90;;;;;;5094380;28;20032;-73
2022/11/16 04:01:17;;;;;;;1999.90;999.90;;;13.10;99.90;;;;;;5087449;28;20111;-72
2022/11/16 04:03:42;;;;;;;1999.90;999.90;;;12.80;99.90;;;;;;5067378;28;20045;-81
2022/11/16 04:25:45;;;;;;;1999.90;999.90;;;12.70;99.90;;;;;;5075258;28;20078;-72
2022/11/16 04:28:15;;;;;;;1999.90;999.90;;;12.80;99.90;;;;;;5074906;28;20025;-82
2022/11/16 04:38:57;;;;;;;1999.90;999.90;;;12.70;99.90;;;;;;5054220;28;20032;-74
2022/11/16 04:44:07;;;;;;;1999.90;999.90;;;12.70;99.90;;;;;;5065889;28;20154;-81
2022/11/16 04:49:17;;;;;;;1999.90;999.90;;;12.70;99.90;;;;;;5096167;28;20051;-81
2022/11/16 04:51:42;;;;;;;1999.90;999.90;;;12.80;99.90;;;;;;5095516;28;20467;-75
2022/11/16 04:54:08;;;;;;;1999.90;999.90;;;12.80;99.90;;;;;;5094389;28;20055;-80
2022/11/16 04:56:33;;;;;;;1999.90;999.90;;;12.80;99.90;;;;;;5094526;28;20031;-73
2022/11/16 04:58:59;;;;;;;1999.90;999.90;;;12.80;99.90;;;;;;5094480;28;20118;-72
2022/11/16 05:04:09;;;;;;;1999.90;999.90;;;12.90;99.90;;;;;;5062700;28;20063;-73
2022/11/16 05:06:35;;;;;;;1999.90;999.90;;;12.90;99.90;;;;;;5062806;28;20464;-80
2022/11/16 05:09:00;;;;;;;1999.90;999.90;;;13.00;99.90;;;;;;5073923;28;20044;-78
2022/11/16 05:11:26;;;;;;;1999.90;999.90;;;13.10;99.90;;;;;;5074581;28;20025;-78
2022/11/16 05:13:52;;;;;;;1999.90;999.90;;;13.00;99.90;;;;;;5073918;28;20130;-73
2022/11/16 05:16:17;;;;;;;1999.90;999.90;;;13.10;99.90;;;;;;5073382;28;20024;-73
2022/11/16 05:18:43;;;;;;;1999.90;999.90;;;13.00;99.90;;;;;;5073870;28;20399;-79
2022/11/16 05:21:09;;;;;;;1999.90;999.90;;;13.00;99.90;;;;;;5073684;28;20029;-79
2022/11/16 05:26:19;;;;;;;1999.90;999.90;;;13.00;99.90;;;;;;5072482;28;20035;-81
2022/11/16 05:28:45;;;;;;;1999.90;999.90;;;13.20;99.90;;;;;;5073739;28;20468;-75
2022/11/16 05:31:10;;;;;;;1999.90;999.90;;;13.30;99.90;;;;;;5073792;28;20485;-73
2022/11/16 05:33:36;;;;;;;1999.90;999.90;;;13.40;99.90;;;;;;5073728;28;20097;-79
2022/11/16 05:36:01;;;;;;;1999.90;999.90;;;13.40;99.90;;;;;;5073653;28;20441;-79
2022/11/16 05:38:27;;;;;;;1999.90;999.90;;;13.40;99.90;;;;;;5073183;28;20035;-79
2022/11/16 05:40:52;;;;;;;1999.90;999.90;;;13.30;99.90;;;;;;5073436;28;20024;-75
2022/11/16 05:43:18;;;;;;;1999.90;999.90;;;13.30;99.90;;;;;;5072463;28;20115;-73
2022/11/16 05:45:44;;;;;;;1999.90;999.90;;;13.20;99.90;;;;;;5092783;28;20020;-74
2022/11/16 05:48:09;;;;;;;1999.90;999.90;;;13.20;99.90;;;;;;5092777;28;20020;-79
2022/11/16 05:50:35;;;;;;;1999.90;999.90;;;13.20;99.90;;;;;;5093440;28;20027;-73
2022/11/16 05:53:00;;;;;;;1999.90;999.90;;;13.30;99.90;;;;;;5093557;28;20042;-74
2022/11/16 05:55:26;;;;;;;1999.90;999.90;;;13.30;99.90;;;;;;5093711;28;20106;-73
2022/11/16 05:57:51;;;;;;;1999.90;999.90;;;13.50;99.90;;;;;;5093595;28;20036;-79
2022/11/16 06:00:17;;;;;;;1999.90;999.90;;;13.50;99.90;;;;;;5093404;28;20032;-73
2022/11/16 06:02:43;;;;;;;1999.90;999.90;;;13.60;99.90;;;;;;5074162;28;20546;-80
2022/11/16 06:05:09;;;;;;;1999.90;999.90;;;13.50;99.90;;;;;;5066343;28;20506;-80
2022/11/16 06:07:34;;;;;;;1999.90;999.90;;;13.60;99.90;;;;;;5073550;28;20107;-79
2022/11/16 06:10:00;;;;;;;1999.90;999.90;;;13.80;99.90;;;;;;5073196;28;20501;-74
2022/11/16 06:12:25;;;;;;;1999.90;999.90;;;14.00;99.90;;;;;;5072788;28;20047;-80
2022/11/16 06:14:51;;;;;;;1999.90;999.90;;;14.10;99.90;;;;;;5073371;28;20024;-79
2022/11/16 06:17:16;;;;;;;1999.90;999.90;;;14.10;99.90;;;;;;5073197;28;20025;-81
2022/11/16 06:19:43;;;;;;;1999.90;999.90;;;14.20;99.90;;;;;;5073544;28;20052;-75
2022/11/16 06:22:08;;;;;;;1999.90;999.90;;;14.20;99.90;;;;;;5071207;28;20471;-79
2022/11/16 06:24:34;;;;;;;1999.90;999.90;;;14.30;99.90;;;;;;5072462;28;20039;-79
2022/11/16 06:26:59;;;;;;;1999.90;999.90;;;14.30;99.90;;;;;;5072951;28;20035;-79
2022/11/16 06:29:25;;;;;;;1999.90;999.90;;;14.30;99.90;;;;;;5072837;28;20104;-75
2022/11/16 06:31:51;;;;;;;1999.90;999.90;;;14.30;99.90;;;;;;5073083;28;20394;-80
2022/11/16 06:34:16;;;;;;;1999.90;999.90;;;14.50;99.90;;;;;;5072301;28;20074;-75
2022/11/16 06:36:42;;;;;;;1999.90;999.90;;;14.50;99.90;;;;;;5071442;28;20407;-80
2022/11/16 06:39:08;;;;;;;1999.90;999.90;;;14.60;99.90;;;;;;5071791;28;20024;-81
2022/11/16 06:41:34;;;;;;;1999.90;999.90;;;14.50;99.90;;;;;;5072740;28;20021;-79
2022/11/16 06:43:59;;;;;;;1999.90;999.90;;;14.50;99.90;;;;;;5076888;28;20055;-80
2022/11/16 06:46:25;;;;;;;1999.90;999.90;;;14.60;99.90;;;;;;5090652;28;20066;-74
2022/11/16 06:48:51;;;;;;;1999.90;999.90;;;14.60;99.90;;;;;;5084278;28;20141;-81
2022/11/16 06:51:16;;;;;;;1999.90;999.90;;;14.60;99.90;;;;;;5092680;28;20531;-82
2022/11/16 06:53:42;;;;;;;1999.90;999.90;;;14.50;99.90;;;;;;5092068;28;20040;-82
2022/11/16 06:56:11;;;;;;;1999.90;999.90;;;14.40;99.90;;;;;;5117544;27;20653;-80
2022/11/16 06:58:36;;;;;;;1999.90;999.90;;;14.40;99.90;;;;;;5072222;28;20039;-74
2022/11/16 07:01:09;;;;;;;1999.90;999.90;;;14.40;99.90;;;;;;5070726;28;20029;-75
2022/11/16 07:03:35;;;;;;;1999.90;999.90;;;14.40;99.90;;;;;;5067023;28;20043;-80
2022/11/16 07:06:10;;;;;;;1999.90;999.90;;;14.50;99.90;;;;;;5052498;28;20098;-80
2022/11/16 07:08:37;;;;;;;1999.90;999.90;;;14.50;99.90;;;;;;5065644;28;20017;-81
2022/11/16 07:11:07;;;;;;;1999.90;999.90;;;14.60;99.90;;;;;;5062779;28;20547;-74
2022/11/16 07:13:35;;;;;;;1999.90;999.90;;;14.60;99.90;;;;;;5071165;28;20421;-82
2022/11/16 07:16:10;;;;;;;1999.90;999.90;;;14.70;99.90;;;;;;5070954;28;20032;-80
2022/11/16 07:18:38;;;;;;;1999.90;999.90;;;14.70;99.90;;;;;;5070997;28;20024;-80
2022/11/16 07:21:06;;;;;;;1999.90;999.90;;;14.70;99.90;;;;;;5071105;28;20034;-80
2022/11/16 07:23:33;;;;;;;1999.90;999.90;;;14.60;99.90;;;;;;5070618;28;20024;-80
2022/11/16 07:26:00;;;;;;;1999.90;999.90;;;14.70;99.90;;;;;;5070691;28;20407;-74
2022/11/16 07:28:28;;;;;;;1999.90;999.90;;;14.70;99.90;;;;;;5068428;28;20017;-75
2022/11/16 07:30:54;;;;;;;1999.90;999.90;;;14.70;99.90;;;;;;5070720;28;20025;-75
2022/11/16 07:33:22;;;;;;;1999.90;999.90;;;14.70;99.90;;;;;;5070386;28;20498;-80
2022/11/16 07:35:48;;;;;;;1999.90;999.90;;;14.80;99.90;;;;;;5075660;28;20059;-75
2022/11/16 07:38:13;;;;;;;1999.90;999.90;;;14.90;99.90;;;;;;5068800;28;20064;-81
2022/11/16 07:40:39;;;;;;;1999.90;999.90;;;15.00;99.90;;;;;;5068620;28;20560;-75
2022/11/16 07:43:05;;;;;;;1999.90;999.90;;;15.00;99.90;;;;;;5071119;28;20028;-81
2022/11/16 07:45:30;;;;;;;1999.90;999.90;;;15.10;99.90;;;;;;5056699;28;20810;-79
2022/11/16 07:47:57;;;;;;;1999.90;999.90;;;15.20;99.90;;;;;;5072378;28;20099;-80
2022/11/16 07:50:22;;;;;;;1999.90;999.90;;;15.10;99.90;;;;;;5062623;28;20025;-77
2022/11/16 07:52:48;;;;;;;1999.90;999.90;;;15.20;99.90;;;;;;5065719;28;20071;-74
2022/11/16 07:55:13;;;;;;;1999.90;999.90;;;15.20;99.90;;;;;;5061547;28;20024;-79
2022/11/16 07:57:40;;;;;;;1999.90;999.90;;;15.20;99.90;;;;;;5070597;28;20518;-79
2022/11/16 08:00:06;;;;;;;1999.90;999.90;;;15.20;99.90;;;;;;5065893;28;20036;-79
2022/11/16 08:02:32;;;;;;;1999.90;999.90;;;15.10;99.90;;;;;;5065805;28;20052;-79
2022/11/16 08:04:57;;;;;;;1999.90;999.90;;;15.00;99.90;;;;;;5069055;28;20082;-75
2022/11/16 08:07:23;;;;;;;1999.90;999.90;;;14.80;99.90;;;;;;5072899;28;20032;-76
2022/11/16 08:09:49;;;;;;;1999.90;999.90;;;13.90;99.90;;;;;;5073222;28;20025;-75
2022/11/16 08:12:15;;;;;;;1999.90;999.90;;;13.50;99.90;;;;;;5073274;28;20418;-81
2022/11/16 08:14:41;;;;;;;1999.90;999.90;;;13.40;99.90;;;;;;5063733;28;20036;-74
2022/11/16 08:17:07;;;;;;;1999.90;999.90;;;13.40;99.90;;;;;;5072814;28;20410;-74
2022/11/16 08:19:33;;;;;;;1999.90;999.90;;;13.40;99.90;;;;;;5072773;28;20032;-75
2022/11/16 08:21:59;;;;;;;1999.90;999.90;;;13.30;99.90;;;;;;5076243;28;20077;-79
2022/11/16 08:24:24;;;;;;;1999.90;999.90;;;13.20;99.90;;;;;;5072108;28;20538;-79
2022/11/16 08:26:50;;;;;;;1999.90;999.90;;;13.10;99.90;;;;;;5073298;28;20070;-74
2022/11/16 08:29:16;;;;;;;1999.90;999.90;;;13.10;99.90;;;;;;5070503;28;20028;-74
2022/11/16 08:31:43;;;;;;;1999.90;999.90;;;13.30;99.90;;;;;;5067512;28;20024;-74
2022/11/16 08:34:09;;;;;;;1999.90;999.90;;;13.50;99.90;;;;;;5073616;28;20028;-78
2022/11/16 08:36:34;;;;;;;1999.90;999.90;;;13.70;99.90;;;;;;5073317;28;20051;-74
2022/11/16 08:39:00;;;;;;;1999.90;999.90;;;13.90;99.90;;;;;;5072680;28;20082;-79
2022/11/16 08:41:26;;;;;;;1999.90;999.90;;;13.80;99.90;;;;;;5071553;28;20036;-79
2022/11/16 08:43:52;;;;;;;1999.90;999.90;;;13.70;99.90;;;;;;5076180;28;20023;-74
2022/11/16 08:46:19;;;;;;;1999.90;999.90;;;13.70;99.90;;;;;;5079945;28;20764;-74
2022/11/16 08:48:45;;;;;;;1999.90;999.90;;;13.40;99.90;;;;;;5071133;28;20069;-73
2022/11/16 08:51:17;;;;;;;1999.90;999.90;;;13.30;99.90;;;;;;5072233;28;20494;-78
2022/11/16 08:53:42;;;;;;;1999.90;999.90;;;13.30;99.90;;;;;;5071788;28;20178;-77
2022/11/16 08:56:13;;;;;;;1999.90;999.90;;;13.30;99.90;;;;;;5071762;28;20477;-75
2022/11/16 08:58:42;;;;;;;1999.90;999.90;;;13.40;99.90;;;;;;5071603;28;20025;-78
2022/11/16 09:01:13;;;;;;;1999.90;999.90;;;13.40;99.90;;;;;;5072146;28;20027;-79
2022/11/16 09:03:39;;;;;;;1999.90;999.90;;;13.40;99.90;;;;;;5070764;28;20044;-73
2022/11/16 09:06:06;;;;;;;1999.90;999.90;;;13.40;99.90;;;;;;5072777;28;20029;-79
2022/11/16 09:08:32;;;;;;;1999.90;999.90;;;13.50;99.90;;;;;;5068348;28;20020;-73
2022/11/16 09:10:58;;;;;;;1999.90;999.90;;;13.80;99.90;;;;;;5067371;28;20029;-73
2022/11/16 09:13:24;;;;;;;1999.90;999.90;;;14.00;99.90;;;;;;5070016;28;20394;-78
2022/11/16 09:15:56;;;;;;;1999.90;999.90;;;14.20;99.90;;;;;;5072626;28;20036;-78
2022/11/16 09:18:22;;;;;;;1999.90;999.90;;;14.40;99.90;;;;;;5071554;28;20476;-81
2022/11/16 09:20:47;;;;;;;1999.90;999.90;;;14.60;99.90;;;;;;5071418;28;20029;-75
2022/11/16 09:23:13;;;;;;;1999.90;999.90;;;14.60;99.90;;;;;;5069244;28;20089;-80
2022/11/16 09:25:38;;;;;;;1999.90;999.90;;;14.70;99.90;;;;;;5069990;28;20036;-78
2022/11/16 09:28:04;;;;;;;1999.90;999.90;;;14.70;99.90;;;;;;5071146;28;20028;-79
2022/11/16 09:30:30;;;;;;;1999.90;999.90;;;14.70;99.90;;;;;;5073119;28;20028;-80
2022/11/16 09:32:57;;;;;;;1999.90;999.90;;;14.60;99.90;;;;;;5072274;28;20585;-74
2022/11/16 09:35:23;;;;;;;1999.90;999.90;;;14.50;99.90;;;;;;5071578;28;20035;-75
2022/11/16 09:37:49;;;;;;;1999.90;999.90;;;14.60;99.90;;;;;;5072548;28;20608;-76
2022/11/16 09:40:15;;;;;;;1999.90;999.90;;;14.70;99.90;;;;;;5062969;28;20039;-76
2022/11/16 09:43:12;;;;;;;1999.90;999.90;;;14.70;99.90;;;;;;5064378;28;20029;-83
2022/11/16 09:46:08;;;;;;;1999.90;999.90;;;14.70;99.90;;;;;;5073719;28;20078;-81
2022/11/16 09:48:36;;;;;;;1999.90;999.90;;;14.80;99.90;;;;;;5063470;28;20510;-75
2022/11/16 09:51:07;;;;;;;1999.90;999.90;;;14.90;99.90;;;;;;5062760;28;20744;-81
2022/11/16 09:53:41;;;;;;;1999.90;999.90;;;15.00;99.90;;;;;;5054140;28;20048;-76
2022/11/16 09:56:12;;;;;;;1999.90;999.90;;;15.10;99.90;;;;;;5066753;28;20024;-76
2022/11/16 09:59:22;;;;;;;1999.90;999.90;;;15.10;99.90;;;;;;5061176;28;20576;-77
2022/11/16 10:01:51;;;;;;;1999.90;999.90;;;15.10;99.90;;;;;;5062449;28;20032;-80
2022/11/16 10:04:29;;;;;;;1999.90;999.90;;;14.80;99.90;;;;;;5050434;28;20043;-81
2022/11/16 10:07:05;;;;;;;1999.90;999.90;;;14.60;99.90;;;;;;5057005;28;20028;-74
2022/11/16 10:09:31;;;;;;;1999.90;999.90;;;14.20;99.90;;;;;;5059240;28;20036;-80
2022/11/16 10:12:15;;;;;;;1999.90;999.90;;;14.00;99.90;;;;;;5065275;28;20024;-74
2022/11/16 10:15:05;;;;;;;1999.90;999.90;;;13.80;99.90;;;;;;5063982;28;20047;-73
2022/11/16 10:17:45;;;;;;;1999.90;999.90;;;13.60;99.90;;;;;;5055867;28;20024;-81
2022/11/16 10:20:23;;;;;;;1999.90;999.90;;;13.50;99.90;;;;;;5057956;28;20043;-80
2022/11/16 10:23:31;;;;;;;1999.90;999.90;;;13.40;99.90;;;;;;5058507;28;20131;-80
2022/11/16 10:26:09;;;;;;;1999.90;999.90;;;13.50;99.90;;;;;;5057317;28;20044;-78
2022/11/16 10:28:56;;;;;;;1999.90;999.90;;;13.70;99.90;;;;;;5067389;28;20032;-75
2022/11/16 10:31:55;;;;;;;1999.90;999.90;;;13.90;99.90;;;;;;5055721;28;20032;-77
2022/11/16 10:34:29;;;;;;;1999.90;999.90;;;14.00;99.90;;;;;;5054220;28;20507;-78
2022/11/16 10:37:02;;;;;;;1999.90;999.90;;;14.20;99.90;;;;;;5048655;28;21070;-75
2022/11/16 10:39:31;;;;;;;1999.90;999.90;;;14.40;99.90;;;;;;5054865;28;20281;-75
2022/11/16 10:42:01;;;;;;;1999.90;999.90;;;14.50;99.90;;;;;;5055992;28;20024;-73
2022/11/16 10:44:49;;;;;;;1999.90;999.90;;;14.60;99.90;;;;;;5064265;28;20065;-78
2022/11/16 10:47:27;;;;;;;1999.90;999.90;;;14.60;99.90;;;;;;5063330;28;20020;-74
2022/11/16 10:50:02;;;;;;;1999.90;999.90;;;14.70;99.90;;;;;;5064370;28;20045;-78
2022/11/16 10:52:27;;;;;;;1999.90;999.90;;;14.90;99.90;;;;;;5051126;28;20033;-73
2022/11/16 10:54:53;;;;;;;1999.90;999.90;;;15.00;99.90;;;;;;5060672;28;20617;-73
2022/11/16 10:57:19;;;;;;;1999.90;999.90;;;14.90;99.90;;;;;;5064224;28;20055;-79
2022/11/16 10:59:47;;;;;;;1999.90;999.90;;;14.90;99.90;;;;;;5067157;28;20030;-80
2022/11/16 11:02:35;;;;;;;1999.90;999.90;;;14.80;99.90;;;;;;5064100;28;20036;-78
2022/11/16 11:05:21;;;;;;;1999.90;999.90;;;14.80;99.90;;;;;;5057703;28;20037;-75
2022/11/16 11:08:00;;;;;;;1999.90;999.90;;;14.70;99.90;;;;;;5054306;28;20120;-72
2022/11/16 11:10:26;;;;;;;1999.90;999.90;;;14.60;99.90;;;;;;5065537;28;20499;-75
2022/11/16 11:13:05;;;;;;;1999.90;999.90;;;14.40;99.90;;;;;;5066754;28;20021;-81
2022/11/16 11:15:30;;;;;;;1999.90;999.90;;;14.20;99.90;;;;;;5053132;28;20036;-78
2022/11/16 11:18:16;;;;;;;1999.90;999.90;;;13.90;99.90;;;;;;5067144;28;20464;-75
2022/11/16 11:20:49;;;;;;;1999.90;999.90;;;13.80;99.90;;;;;;5067212;28;20033;-77
2022/11/16 11:23:16;;;;;;;1999.90;999.90;;;13.60;99.90;;;;;;5061746;28;20508;-81
2022/11/16 11:25:54;;;;;;;1999.90;999.90;;;13.60;99.90;;;;;;5066696;28;20036;-83
2022/11/16 11:28:30;;;;;;;1999.90;999.90;;;13.50;99.90;;;;;;5067027;28;20071;-83
2022/11/16 11:30:59;;;;;;;1999.90;999.90;;;13.60;99.90;;;;;;5066481;28;20052;-71
2022/11/16 11:33:49;;;;;;;1999.90;999.90;;;13.60;99.90;;;;;;5070519;28;20052;-74
2022/11/16 11:36:25;;;;;;;1999.90;999.90;;;13.70;99.90;;;;;;5056942;28;20098;-73
2022/11/16 11:39:20;;;;;;;1999.90;999.90;;;13.80;99.90;;;;;;5070939;28;20036;-79
2022/11/16 11:42:08;;;;;;;1999.90;999.90;;;14.00;99.90;;;;;;5057053;28;20139;-79
2022/11/16 11:44:56;;;;;;;1999.90;999.90;;;14.30;99.90;;;;;;5061391;28;20039;-74
2022/11/16 11:47:43;;;;;;;1999.90;999.90;;;14.60;99.90;;;;;;5054973;28;20733;-77
2022/11/16 11:50:26;;;;;;;1999.90;999.90;;;14.80;99.90;;;;;;5065651;28;20025;-74
2022/11/16 11:53:14;;;;;;;1999.90;999.90;;;14.90;99.90;;;;;;5063370;28;20131;-78
2022/11/16 11:55:40;;;;;;;1999.90;999.90;;;15.00;99.90;;;;;;5063461;28;20048;-80
2022/11/16 11:58:12;;;;;;;1999.90;999.90;;;15.10;99.90;;;;;;5063549;28;20644;-79
2022/11/16 12:00:53;;;;;;;1999.90;999.90;;;15.20;99.90;;;;;;5075903;28;20117;-73
2022/11/16 12:03:41;;;;;;;1999.90;999.90;;;15.30;99.90;;;;;;5071561;28;20044;-76
2022/11/16 12:06:14;;;;;;;1999.90;999.90;;;15.30;99.90;;;;;;5059427;28;20490;-73
2022/11/16 12:09:20;;;;;;;1999.90;999.90;;;15.10;99.90;;;;;;5067581;28;20027;-78
2022/11/16 12:11:58;;;;;;;1999.90;999.90;;;14.80;99.90;;;;;;5063553;28;20503;-79
2022/11/16 12:14:51;;;;;;;1999.90;999.90;;;14.80;99.90;;;;;;5057199;28;20372;-74
2022/11/16 12:17:58;;;;;;;1999.90;999.90;;;14.70;99.90;;;;;;5070315;28;20424;-78
2022/11/16 12:20:44;;;;;;;1999.90;999.90;;;14.70;99.90;;;;;;5064846;28;20062;-78
2022/11/16 12:23:46;;;;;;;1999.90;999.90;;;14.90;99.90;;;;;;5061597;28;20384;-74
2022/11/16 12:26:52;;;;;;;1999.90;999.90;;;15.00;99.90;;;;;;5068309;28;20393;-79
2022/11/16 12:29:53;;;;;;;1999.90;999.90;;;15.10;99.90;;;;;;5065109;28;20024;-81
2022/11/16 12:32:40;;;;;;;1999.90;999.90;;;15.30;99.90;;;;;;5062205;28;20392;-78
2022/11/16 12:35:43;;;;;;;1999.90;999.90;;;15.20;99.90;;;;;;5055604;28;20037;-81
2022/11/16 12:38:40;;;;;;;1999.90;999.90;;;15.00;99.90;;;;;;5064703;28;20089;-79
2022/11/16 12:41:24;;;;;;;1999.90;999.90;;;15.00;99.90;;;;;;5059115;28;20174;-80
2022/11/16 12:43:55;;;;;;;1999.90;999.90;;;15.10;99.90;;;;;;5066064;28;20033;-75
2022/11/16 12:46:36;;;;;;;1999.90;999.90;;;15.10;99.90;;;;;;5060612;28;20024;-82
2022/11/16 12:49:28;;;;;;;1999.90;999.90;;;15.20;99.90;;;;;;5070748;28;20491;-78
2022/11/16 12:52:24;;;;;;;1999.90;999.90;;;15.20;99.90;;;;;;5069848;28;20036;-73
2022/11/16 12:55:14;;;;;;;1999.90;999.90;;;15.20;99.90;;;;;;5059156;28;20798;-82
2022/11/16 12:57:45;;;;;;;1999.90;999.90;;;15.30;99.90;;;;;;5057242;28;20078;-75
2022/11/16 13:00:14;;;;;;;1999.90;999.90;;;15.40;99.90;;;;;;5060278;28;20025;-81
2022/11/16 13:03:04;;;;;;;1999.90;999.90;;;15.40;99.90;;;;;;5059212;28;20041;-75
2022/11/16 13:05:42;;;;;;;1999.90;999.90;;;15.50;99.90;;;;;;5064378;28;20075;-73
2022/11/16 13:08:29;;;;;;;1999.90;999.90;;;15.40;99.90;;;;;;5067222;28;20021;-81